createdAt,value
2023-03-20T00:03:21.206Z,4.50
2023-03-20T00:07:23.177Z,3.93
2023-03-20T00:11:33.459Z,3.60
2023-03-20T00:15:38.130Z,4.60
2023-03-20T00:19:41.575Z,4.47
2023-03-20T00:23:43.537Z,4.30
2023-03-20T00:27:45.542Z,4.10
2023-03-20T00:31:47.739Z,6.13
2023-03-20T00:35:49.933Z,5.43
2023-03-20T00:39:51.846Z,5.30
2023-03-20T00:44:25.537Z,5.67
2023-03-20T00:48:27.824Z,5.17
2023-03-20T00:52:30.002Z,4.57
2023-03-20T00:56:39.405Z,4.90
2023-03-20T01:00:44.656Z,4.73
2023-03-20T01:04:46.699Z,4.43
2023-03-20T01:08:48.866Z,5.20
2023-03-20T01:12:50.776Z,4.87
2023-03-20T01:16:52.775Z,4.43
2023-03-20T01:20:54.593Z,4.27
2023-03-20T01:24:56.475Z,4.30
2023-03-20T01:28:58.338Z,4.30
2023-03-20T01:33:00.435Z,3.37
2023-03-20T01:37:02.236Z,3.40
2023-03-20T01:41:12.906Z,3.53
2023-03-20T01:45:21.274Z,3.17
2023-03-20T01:49:23.074Z,2.47
2023-03-20T01:53:26.602Z,3.10
2023-03-20T01:57:28.498Z,2.80
2023-03-20T02:01:30.721Z,2.90
2023-03-20T02:05:32.726Z,3.03
2023-03-20T02:09:34.768Z,2.57
2023-03-20T02:13:36.610Z,2.60
2023-03-20T02:17:38.459Z,3.10
2023-03-20T02:22:07.818Z,2.60
2023-03-20T02:26:47.078Z,2.50
2023-03-20T02:31:16.116Z,2.70
2023-03-20T02:35:58.739Z,2.97
2023-03-20T02:40:38.576Z,2.50
2023-03-20T02:45:20.001Z,2.67
2023-03-20T02:50:10.949Z,3.00
2023-03-20T02:54:28.723Z,2.93
2023-03-20T02:58:50.696Z,2.60
2023-03-20T03:03:08.062Z,2.80
2023-03-20T03:07:17.091Z,2.60
2023-03-20T03:11:25.061Z,2.90
2023-03-20T03:15:40.164Z,2.60
2023-03-20T03:19:53.095Z,2.60
2023-03-20T03:23:54.896Z,3.10
2023-03-20T03:28:13.365Z,2.67
2023-03-20T03:32:34.882Z,2.40
2023-03-20T03:37:02.313Z,2.70
2023-03-20T03:41:18.593Z,2.80
2023-03-20T03:45:32.810Z,2.57
2023-03-20T03:49:37.983Z,3.00
2023-03-20T03:53:44.811Z,2.50
2023-03-20T03:57:53.570Z,2.97
2023-03-20T04:01:55.592Z,3.90
2023-03-20T04:05:57.921Z,5.10
2023-03-20T04:10:00.050Z,6.60
2023-03-20T04:15:25.970Z,7.67
2023-03-20T04:19:27.790Z,7.63
2023-03-20T04:23:31.954Z,5.60
2023-03-20T04:27:33.789Z,4.77
2023-03-20T04:31:35.931Z,3.33
2023-03-20T04:35:38.028Z,3.10
2023-03-20T04:39:42.463Z,2.80
2023-03-20T04:43:44.328Z,2.70
2023-03-20T04:47:46.190Z,2.77
2023-03-20T04:51:48.010Z,3.00
2023-03-20T04:55:51.204Z,2.60
2023-03-20T04:59:53.185Z,2.47
2023-03-20T05:04:00.843Z,2.70
2023-03-20T05:08:02.839Z,2.47
2023-03-20T05:12:05.515Z,2.70
2023-03-20T05:16:08.010Z,3.00
2023-03-20T05:20:12.969Z,2.97
2023-03-20T05:24:14.867Z,3.00
2023-03-20T05:28:16.770Z,3.40
2023-03-20T05:32:20.012Z,2.80
2023-03-20T05:36:21.938Z,2.87
2023-03-20T05:40:25.572Z,2.83
2023-03-20T05:44:27.371Z,2.77
2023-03-20T05:48:29.193Z,2.80
2023-03-20T05:52:31.158Z,2.70
2023-03-20T05:56:33.367Z,2.70
2023-03-20T06:00:35.969Z,3.00
2023-03-20T06:04:38.039Z,2.90
2023-03-20T06:08:39.981Z,2.37
2023-03-20T06:12:42.039Z,2.60
2023-03-20T06:16:43.945Z,2.87
2023-03-20T06:20:46.002Z,2.70
2023-03-20T06:24:47.934Z,3.20
2023-03-20T06:28:49.927Z,3.10
2023-03-20T06:32:54.416Z,2.80
2023-03-20T06:36:56.424Z,3.50
2023-03-20T06:40:58.341Z,2.90
2023-03-20T06:45:00.577Z,2.93
2023-03-20T06:49:02.498Z,2.60
2023-03-20T06:53:04.371Z,3.07
2023-03-20T06:57:06.428Z,2.90
2023-03-20T07:01:17.274Z,3.10
2023-03-20T07:05:19.511Z,2.80
2023-03-20T07:09:22.294Z,3.00
2023-03-20T07:13:24.333Z,3.20
2023-03-20T07:17:26.868Z,3.00
2023-03-20T07:21:28.855Z,3.00
2023-03-20T07:25:41.964Z,3.10
2023-03-20T07:29:45.602Z,3.37
2023-03-20T07:33:48.722Z,3.60
2023-03-20T07:37:50.572Z,3.03
2023-03-20T07:41:52.509Z,3.70
2023-03-20T07:45:54.644Z,3.67
2023-03-20T07:49:56.555Z,3.50
2023-03-20T07:53:58.478Z,3.50
2023-03-20T07:58:00.353Z,3.50
2023-03-20T08:02:02.246Z,3.83
2023-03-20T08:06:06.501Z,3.57
2023-03-20T08:10:09.615Z,3.43
2023-03-20T08:14:11.822Z,3.60
2023-03-20T08:18:14.358Z,4.10
2023-03-20T08:22:16.536Z,3.90
2023-03-20T08:26:18.505Z,4.07
2023-03-20T08:30:20.724Z,4.17
2023-03-20T08:34:24.124Z,4.10
2023-03-20T08:38:26.088Z,5.03
2023-03-20T08:42:28.046Z,5.10
2023-03-20T08:46:29.946Z,5.23
2023-03-20T08:50:32.280Z,5.23
2023-03-20T08:54:34.361Z,5.70
2023-03-20T08:58:36.232Z,6.73
2023-03-20T09:02:38.283Z,6.67
2023-03-20T09:06:41.071Z,7.80
2023-03-20T09:10:43.480Z,7.23
2023-03-20T09:14:45.704Z,8.07
2023-03-20T09:18:47.652Z,8.60
2023-03-20T09:22:49.712Z,8.40
2023-03-20T09:26:52.261Z,9.00
2023-03-20T09:31:00.267Z,8.50
2023-03-20T09:35:03.080Z,9.93
2023-03-20T09:39:05.185Z,10.63
2023-03-20T09:43:50.253Z,10.80
2023-03-20T09:48:09.938Z,11.67
2023-03-20T09:52:31.348Z,11.67
2023-03-20T09:56:33.295Z,10.17
2023-03-20T10:00:36.801Z,14.33
2023-03-20T10:04:38.833Z,17.20
2023-03-20T10:08:43.029Z,14.80
2023-03-20T10:13:24.561Z,14.20
2023-03-20T10:17:33.535Z,14.20
2023-03-20T10:21:46.922Z,13.67
2023-03-20T10:25:52.374Z,13.57
2023-03-20T10:30:22.490Z,13.20
2023-03-20T10:34:41.890Z,13.03
2023-03-20T10:39:27.101Z,12.40
2023-03-20T10:43:38.169Z,13.93
2023-03-20T10:47:42.785Z,13.67
2023-03-20T10:51:49.709Z,14.13
2023-03-20T10:55:51.743Z,15.23
2023-03-20T11:00:00.083Z,13.73
2023-03-20T11:04:02.123Z,13.90
2023-03-20T11:08:06.446Z,13.53
2023-03-20T11:12:18.415Z,14.27
2023-03-20T11:16:31.686Z,13.20
2023-03-20T11:20:56.993Z,13.13
2023-03-20T11:25:01.914Z,13.10
2023-03-20T11:29:08.378Z,13.27
2023-03-20T11:33:10.616Z,12.87
2023-03-20T11:37:26.095Z,12.83
2023-03-20T11:41:28.865Z,12.83
2023-03-20T11:45:42.137Z,13.27
2023-03-20T11:49:50.608Z,12.53
2023-03-20T11:54:04.226Z,12.27
2023-03-20T11:58:06.569Z,12.20
2023-03-20T12:02:22.867Z,13.43
2023-03-20T12:06:39.923Z,16.07
2023-03-20T12:10:43.165Z,13.27
2023-03-20T12:15:01.860Z,13.37
2023-03-20T12:19:09.788Z,14.17
2023-03-20T12:23:57.487Z,16.20
2023-03-20T12:28:17.985Z,13.97
2023-03-20T12:32:45.134Z,16.67
2023-03-20T12:36:49.041Z,14.87
2023-03-20T12:40:55.198Z,16.93
2023-03-20T12:45:12.738Z,15.47
2023-03-20T12:49:52.015Z,15.77
2023-03-20T12:54:19.071Z,15.73
2023-03-20T12:58:51.189Z,14.70
2023-03-20T13:03:17.333Z,15.40
2023-03-20T13:07:21.459Z,15.27
2023-03-20T13:12:12.828Z,14.87
2023-03-20T13:16:47.946Z,15.77
2023-03-20T13:20:56.764Z,16.60
2023-03-20T13:25:49.383Z,18.73
2023-03-20T13:30:33.410Z,19.73
2023-03-20T13:35:14.271Z,19.07
2023-03-20T13:39:46.849Z,21.00
2023-03-20T13:43:57.489Z,18.53
2023-03-20T13:48:04.678Z,19.47
2023-03-20T13:52:22.080Z,17.80
2023-03-20T13:56:32.634Z,19.70
2023-03-20T14:00:47.239Z,19.53
2023-03-20T14:04:52.709Z,18.20
2023-03-20T14:08:55.151Z,18.83
2023-03-20T14:13:05.260Z,19.30
2023-03-20T14:17:22.449Z,18.10
2023-03-20T14:21:29.614Z,19.93
2023-03-20T14:25:40.400Z,20.67
2023-03-20T14:29:42.444Z,20.37
2023-03-20T14:33:46.140Z,22.33
2023-03-20T14:38:18.735Z,20.53
2023-03-20T14:42:54.964Z,21.40
2023-03-20T14:47:07.100Z,20.73
2023-03-20T14:51:35.182Z,19.63
2023-03-20T14:56:12.115Z,20.77
2023-03-20T15:00:28.724Z,22.20
2023-03-20T15:04:43.229Z,21.00
2023-03-20T15:08:53.434Z,22.37
2023-03-20T15:12:55.839Z,21.87
2023-03-20T15:17:01.869Z,22.57
2023-03-20T15:21:04.073Z,22.23
2023-03-20T15:25:08.293Z,23.67
2023-03-20T15:29:16.630Z,21.87
2023-03-20T15:33:43.811Z,22.80
2023-03-20T15:38:24.549Z,20.23
2023-03-20T15:42:27.818Z,19.67
2023-03-20T15:46:34.993Z,19.83
2023-03-20T15:50:46.482Z,20.20
2023-03-20T15:54:48.889Z,16.40
2023-03-20T15:58:52.599Z,15.10
2023-03-20T16:02:56.769Z,13.27
2023-03-20T16:07:00.560Z,15.20
2023-03-20T16:11:11.052Z,14.40
2023-03-20T16:15:17.229Z,14.50
2023-03-20T16:19:19.386Z,14.53
2023-03-20T16:23:38.073Z,14.40
2023-03-20T16:27:52.097Z,16.40
2023-03-20T16:31:57.769Z,17.27
2023-03-20T16:35:59.942Z,16.13
2023-03-20T16:40:15.437Z,14.57
2023-03-20T16:44:23.165Z,14.20
2023-03-20T16:48:39.528Z,10.60
2023-03-20T16:52:48.963Z,10.60
2023-03-20T16:56:54.149Z,10.40
2023-03-20T17:01:01.589Z,9.07
2023-03-20T17:05:06.996Z,9.00
2023-03-20T17:09:23.051Z,9.53
2023-03-20T17:13:25.162Z,9.17
2023-03-20T17:17:43.755Z,7.40
2023-03-20T17:21:51.381Z,7.53
2023-03-20T17:25:54.121Z,8.00
2023-03-20T17:29:56.748Z,7.40
2023-03-20T17:33:58.686Z,7.33
2023-03-20T17:38:02.715Z,7.00
2023-03-20T17:42:24.515Z,7.10
2023-03-20T17:46:31.468Z,7.00
2023-03-20T17:50:33.465Z,6.40
2023-03-20T17:54:35.741Z,6.30
2023-03-20T17:58:46.204Z,5.97
2023-03-20T18:02:55.817Z,6.13
2023-03-20T18:07:01.685Z,5.20
2023-03-20T18:11:10.931Z,5.40
2023-03-20T18:15:12.863Z,5.00
2023-03-20T18:19:35.894Z,6.37
2023-03-20T18:23:41.138Z,5.90
2023-03-20T18:27:44.244Z,5.90
2023-03-20T18:31:52.389Z,6.00
2023-03-20T18:35:58.389Z,6.33
2023-03-20T18:40:05.421Z,5.90
2023-03-20T18:44:07.840Z,5.93
2023-03-20T18:48:22.807Z,6.27
2023-03-20T18:52:33.614Z,6.50
2023-03-20T18:56:39.731Z,7.73
2023-03-20T19:00:47.714Z,7.00
2023-03-20T19:04:49.844Z,7.50
2023-03-20T19:08:54.022Z,7.37
2023-03-20T19:12:58.736Z,7.33
2023-03-20T19:17:00.582Z,6.90
2023-03-20T19:21:05.323Z,7.80
2023-03-20T19:25:07.566Z,8.10
2023-03-20T19:29:11.623Z,8.47
2023-03-20T19:33:16.390Z,8.10
2023-03-20T19:37:18.628Z,8.03
2023-03-20T19:41:24.221Z,8.13
2023-03-20T19:45:31.662Z,8.13
2023-03-20T19:49:40.845Z,8.20
2023-03-20T19:53:43.858Z,7.40
2023-03-20T19:57:48.480Z,8.13
2023-03-20T20:01:51.137Z,7.80
2023-03-20T20:05:53.475Z,8.47
2023-03-20T20:09:55.743Z,8.83
2023-03-20T20:14:07.751Z,8.00
2023-03-20T20:18:11.625Z,8.20
2023-03-20T20:22:24.845Z,9.87
2023-03-20T20:26:31.322Z,8.60
2023-03-20T20:30:37.793Z,8.63
2023-03-20T20:39:03.979Z,8.90
2023-03-20T20:43:10.378Z,9.87
2023-03-20T20:47:13.233Z,9.63
2023-03-20T20:51:15.416Z,9.07
2023-03-20T20:55:27.867Z,9.80
2023-03-20T20:59:30.414Z,9.07
2023-03-20T21:03:33.888Z,9.77
2023-03-20T21:07:35.979Z,9.23
2023-03-20T21:11:37.912Z,9.27
2023-03-20T21:15:40.309Z,9.87
2023-03-20T21:19:43.647Z,10.47
2023-03-20T21:23:46.322Z,9.70
2023-03-20T21:27:48.199Z,9.60
2023-03-20T21:31:50.252Z,9.53
2023-03-20T21:35:53.899Z,9.97
2023-03-20T21:39:56.948Z,10.63
2023-03-20T21:44:01.247Z,9.90
2023-03-20T21:48:41.392Z,10.00
2023-03-20T21:53:10.453Z,9.73
2023-03-20T21:57:37.313Z,9.20
2023-03-20T22:06:37.300Z,9.87
2023-03-20T22:10:51.314Z,9.60
2023-03-20T22:15:12.006Z,9.60
2023-03-20T22:28:23.269Z,8.70
2023-03-20T22:37:19.330Z,8.83
2023-03-20T22:41:36.094Z,9.23
2023-03-20T22:45:07.867Z,9.13
2023-03-20T22:49:10.347Z,9.63
2023-03-20T22:53:12.271Z,9.13
2023-03-20T22:57:14.106Z,9.53
2023-03-20T23:01:16.100Z,9.03
2023-03-20T23:05:18.027Z,7.90
2023-03-20T23:09:19.915Z,8.93
2023-03-20T23:13:22.551Z,8.70
2023-03-20T23:17:24.523Z,8.60
2023-03-20T23:21:28.152Z,8.03
2023-03-20T23:25:38.607Z,9.03
2023-03-20T23:29:40.997Z,8.57
2023-03-20T23:33:43.610Z,8.67
2023-03-20T23:37:46.653Z,8.30
2023-03-20T23:42:06.544Z,8.47
2023-03-20T23:46:10.867Z,8.30
2023-03-20T23:50:20.804Z,8.23
2023-03-20T23:54:28.584Z,7.90
2023-03-20T23:58:30.864Z,8.00
